createdAt,value
2019-05-10T00:00:57.233Z,12.40
2019-05-10T00:03:44.271Z,12.50
2019-05-10T00:06:31.134Z,12.40
2019-05-10T00:08:59.325Z,12.40
2019-05-10T00:11:48.846Z,12.40
2019-05-10T00:14:33.714Z,12.40
2019-05-10T00:17:23.122Z,12.30
2019-05-10T00:19:52.307Z,12.20
2019-05-10T00:22:21.697Z,12.20
2019-05-10T00:25:03.015Z,12.20
2019-05-10T00:27:21.676Z,12.30
2019-05-10T00:29:50.687Z,12.30
2019-05-10T00:32:19.714Z,12.30
2019-05-10T00:34:48.814Z,12.30
2019-05-10T00:37:18.109Z,12.30
2019-05-10T00:39:47.165Z,12.20
2019-05-10T00:42:16.170Z,12.20
2019-05-10T00:44:45.365Z,12.30
2019-05-10T00:47:14.414Z,12.30
2019-05-10T00:49:43.429Z,12.30
2019-05-10T00:52:12.433Z,12.30
2019-05-10T00:54:43.857Z,12.30
2019-05-10T00:57:12.870Z,12.30
2019-05-10T00:59:41.870Z,12.30
2019-05-10T01:02:10.824Z,12.40
2019-05-10T01:04:40.213Z,12.30
2019-05-10T01:07:09.157Z,12.40
2019-05-10T01:09:38.021Z,12.40
2019-05-10T01:12:07.090Z,12.40
2019-05-10T01:14:36.030Z,12.40
2019-05-10T01:17:04.969Z,12.30
2019-05-10T01:19:33.919Z,12.30
2019-05-10T01:22:03.138Z,12.30
2019-05-10T01:24:32.343Z,12.30
2019-05-10T01:27:01.353Z,12.30
2019-05-10T01:29:30.426Z,12.40
2019-05-10T01:31:59.352Z,12.30
2019-05-10T01:34:28.290Z,12.30
2019-05-10T01:36:57.233Z,12.40
2019-05-10T01:39:26.183Z,12.40
2019-05-10T01:41:55.185Z,12.30
2019-05-10T01:44:24.229Z,12.30
2019-05-10T01:46:53.218Z,12.30
2019-05-10T01:49:22.082Z,12.30
2019-05-10T01:51:51.014Z,12.30
2019-05-10T01:54:20.163Z,12.40
2019-05-10T01:56:48.983Z,12.40
2019-05-10T01:59:17.921Z,12.40
2019-05-10T02:01:46.883Z,12.40
2019-05-10T02:04:17.689Z,12.40
2019-05-10T02:06:46.805Z,12.40
2019-05-10T02:09:15.811Z,12.40
2019-05-10T02:11:44.817Z,12.40
2019-05-10T02:14:13.827Z,12.40
2019-05-10T02:16:42.985Z,12.30
2019-05-10T02:19:12.045Z,12.30
2019-05-10T02:21:41.041Z,12.30
2019-05-10T02:24:10.052Z,12.20
2019-05-10T02:26:38.984Z,12.20
2019-05-10T02:29:08.002Z,12.10
2019-05-10T02:31:37.043Z,12.00
2019-05-10T02:34:05.990Z,12.00
2019-05-10T02:36:34.908Z,12.00
2019-05-10T02:39:04.890Z,11.90
2019-05-10T02:41:33.898Z,11.80
2019-05-10T02:44:02.915Z,11.80
2019-05-10T02:46:32.018Z,11.80
2019-05-10T02:49:01.023Z,11.80
2019-05-10T02:51:30.068Z,11.90
2019-05-10T02:53:59.819Z,12.00
2019-05-10T02:56:31.467Z,12.00
2019-05-10T02:59:01.267Z,11.90
2019-05-10T03:01:30.776Z,11.90
2019-05-10T03:04:02.443Z,11.90
2019-05-10T03:06:35.403Z,11.80
2019-05-10T03:09:07.731Z,11.80
2019-05-10T03:11:47.579Z,11.90
2019-05-10T03:14:19.606Z,11.90
2019-05-10T03:16:51.976Z,11.80
2019-05-10T03:19:21.545Z,11.80
2019-05-10T03:22:08.541Z,11.70
2019-05-10T03:24:37.535Z,11.70
2019-05-10T03:27:06.380Z,11.60
2019-05-10T03:29:35.338Z,11.60
2019-05-10T03:32:04.423Z,11.60
2019-05-10T03:34:33.438Z,11.60
2019-05-10T03:37:02.584Z,11.60
2019-05-10T03:39:31.620Z,11.70
2019-05-10T03:42:00.594Z,11.60
2019-05-10T03:44:29.616Z,11.60
2019-05-10T03:46:58.608Z,11.60
2019-05-10T03:49:27.691Z,11.60
2019-05-10T03:51:56.754Z,11.60
2019-05-10T03:54:25.807Z,11.60
2019-05-10T03:57:10.704Z,11.60
2019-05-10T03:59:25.617Z,11.50
2019-05-10T04:01:54.810Z,11.50
2019-05-10T04:04:23.859Z,11.40
2019-05-10T04:06:53.056Z,11.40
2019-05-10T04:09:22.108Z,11.30
2019-05-10T04:11:51.126Z,11.40
2019-05-10T04:14:20.240Z,11.50
2019-05-10T04:16:49.228Z,11.40
2019-05-10T04:19:19.719Z,11.40
2019-05-10T04:21:48.814Z,11.40
2019-05-10T04:24:18.294Z,11.40
2019-05-10T04:26:47.306Z,11.40
2019-05-10T04:29:16.459Z,11.30
2019-05-10T04:31:45.497Z,11.20
2019-05-10T04:34:14.474Z,11.30
2019-05-10T04:36:43.862Z,11.10
2019-05-10T04:39:12.861Z,11.10
2019-05-10T04:41:42.145Z,11.10
2019-05-10T04:44:11.238Z,11.20
2019-05-10T04:46:40.244Z,11.20
2019-05-10T04:49:09.210Z,11.30
2019-05-10T04:51:38.344Z,11.20
2019-05-10T04:54:07.385Z,11.30
2019-05-10T04:56:36.419Z,11.30
2019-05-10T04:59:05.489Z,11.30
2019-05-10T05:01:34.823Z,11.40
2019-05-10T05:04:03.835Z,11.40
2019-05-10T05:06:32.917Z,11.40
2019-05-10T05:09:01.927Z,11.40
2019-05-10T05:11:30.922Z,11.50
2019-05-10T05:13:59.955Z,11.50
2019-05-10T05:16:28.963Z,11.50
2019-05-10T05:18:58.032Z,11.50
2019-05-10T05:21:26.983Z,11.60
2019-05-10T05:23:55.953Z,11.60
2019-05-10T05:26:25.039Z,11.60
2019-05-10T05:28:54.053Z,11.70
2019-05-10T05:31:23.365Z,11.70
2019-05-10T05:33:52.298Z,11.70
2019-05-10T05:36:21.350Z,11.80
2019-05-10T05:38:50.349Z,11.80
2019-05-10T05:41:19.400Z,11.90
2019-05-10T05:43:48.630Z,11.90
2019-05-10T05:46:17.712Z,11.80
2019-05-10T05:48:46.689Z,11.90
2019-05-10T05:51:15.758Z,12.00
2019-05-10T05:53:44.916Z,12.00
2019-05-10T05:56:14.749Z,12.10
2019-05-10T05:58:46.763Z,12.20
2019-05-10T06:01:24.685Z,12.20
2019-05-10T06:03:45.557Z,12.30
2019-05-10T06:06:21.274Z,12.30
2019-05-10T06:08:45.159Z,12.40
2019-05-10T06:11:14.321Z,12.60
2019-05-10T06:13:43.284Z,12.80
2019-05-10T06:16:14.640Z,13.30
2019-05-10T06:18:47.415Z,13.90
2019-05-10T06:21:17.946Z,14.50
2019-05-10T06:23:44.508Z,15.10
2019-05-10T06:26:21.078Z,15.80
2019-05-10T06:28:58.325Z,16.00
2019-05-10T06:31:15.386Z,16.10
2019-05-10T06:33:45.198Z,16.30
2019-05-10T06:36:15.271Z,16.40
2019-05-10T06:38:44.211Z,16.10
2019-05-10T06:41:16.732Z,15.90
2019-05-10T06:43:45.554Z,15.80
2019-05-10T06:46:14.583Z,15.80
2019-05-10T06:48:43.614Z,15.90
2019-05-10T06:51:12.621Z,15.80
2019-05-10T06:53:51.043Z,15.90
2019-05-10T06:56:12.441Z,15.90
2019-05-10T06:58:41.580Z,15.90
2019-05-10T07:01:10.550Z,16.00
2019-05-10T07:03:39.421Z,16.20
2019-05-10T07:06:08.374Z,16.40
2019-05-10T07:08:44.103Z,16.60
2019-05-10T07:11:08.123Z,17.00
2019-05-10T07:13:40.388Z,17.50
2019-05-10T07:16:07.976Z,17.90
2019-05-10T07:18:36.954Z,18.10
2019-05-10T07:21:06.915Z,18.40
2019-05-10T07:23:39.009Z,18.60
2019-05-10T07:26:09.758Z,19.00
2019-05-10T07:28:38.474Z,19.30
2019-05-10T07:31:07.422Z,19.90
2019-05-10T07:33:37.206Z,20.20
2019-05-10T07:36:14.522Z,20.60
2019-05-10T07:38:37.908Z,20.80
2019-05-10T07:41:06.920Z,21.10
2019-05-10T07:43:35.871Z,21.40
2019-05-10T07:46:06.807Z,21.50
2019-05-10T07:48:35.555Z,21.60
2019-05-10T07:51:04.673Z,22.10
2019-05-10T08:17:30.219Z,23.40
2019-05-10T08:19:59.612Z,23.10
2019-05-10T08:22:32.769Z,23.30
2019-05-10T08:24:59.263Z,23.70
2019-05-10T08:27:28.222Z,23.20
2019-05-10T08:30:18.020Z,23.20
2019-05-10T08:32:30.029Z,23.10
2019-05-10T08:34:59.022Z,22.90
2019-05-10T08:37:36.016Z,22.40
2019-05-10T08:39:58.669Z,22.40
2019-05-10T08:42:43.491Z,22.10
2019-05-10T08:45:03.636Z,22.00
2019-05-10T08:47:29.191Z,21.80
2019-05-10T08:50:11.904Z,21.60
2019-05-10T08:52:31.676Z,21.50
2019-05-10T08:55:02.497Z,21.20
2019-05-10T08:57:34.899Z,20.80
2019-05-10T09:00:07.182Z,20.80
2019-05-10T09:02:32.897Z,21.00
2019-05-10T09:05:02.720Z,20.80
2019-05-10T09:07:36.985Z,20.50
2019-05-10T09:10:02.661Z,20.40
2019-05-10T09:12:32.932Z,20.40
2019-05-10T09:15:06.366Z,20.40
2019-05-10T09:17:32.721Z,20.00
2019-05-10T09:20:02.657Z,20.00
2019-05-10T09:22:37.947Z,20.00
2019-05-10T09:25:02.578Z,20.00
2019-05-10T09:27:33.440Z,19.90
2019-05-10T09:30:02.944Z,19.90
2019-05-10T09:32:33.353Z,19.80
2019-05-10T09:35:07.618Z,19.70
2019-05-10T09:37:33.358Z,19.60
2019-05-10T09:40:09.436Z,19.50
2019-05-10T09:42:39.726Z,19.40
2019-05-10T09:45:04.107Z,19.40
2019-05-10T09:47:33.162Z,19.20
2019-05-10T09:50:02.417Z,18.70
2019-05-10T09:52:31.591Z,18.60
2019-05-10T09:55:12.383Z,18.60
2019-05-10T09:57:41.541Z,18.70
2019-05-10T10:00:11.045Z,18.90
2019-05-10T10:02:40.471Z,19.30
2019-05-10T10:05:10.162Z,19.30
2019-05-10T10:07:40.482Z,19.60
2019-05-10T10:10:12.705Z,19.90
2019-05-10T10:12:40.299Z,20.00
2019-05-10T10:15:11.902Z,20.10
2019-05-10T10:17:42.405Z,19.90
2019-05-10T10:20:11.001Z,20.00
2019-05-10T10:22:43.370Z,20.00
2019-05-10T10:25:10.869Z,20.00
2019-05-10T10:27:39.833Z,20.00
2019-05-10T10:30:12.820Z,19.90
2019-05-10T10:32:39.893Z,19.90
2019-05-10T10:35:13.288Z,19.80
2019-05-10T10:37:39.842Z,19.80
2019-05-10T10:40:09.170Z,19.90
2019-05-10T10:42:38.504Z,19.70
2019-05-10T10:45:08.489Z,19.50
2019-05-10T10:47:38.110Z,19.60
2019-05-10T10:50:13.226Z,19.60
2019-05-10T10:52:39.521Z,19.40
2019-05-10T10:55:11.869Z,19.20
2019-05-10T10:57:40.614Z,19.30
2019-05-10T11:00:11.324Z,19.00
2019-05-10T11:02:41.696Z,18.70
2019-05-10T11:05:11.290Z,18.60
2019-05-10T11:07:44.323Z,18.30
2019-05-10T11:10:18.832Z,18.10
2019-05-10T11:12:42.757Z,17.90
2019-05-10T11:15:16.642Z,17.90
2019-05-10T11:17:42.660Z,17.60
2019-05-10T11:20:11.789Z,17.50
2019-05-10T11:22:48.996Z,17.70
2019-05-10T11:25:12.889Z,17.80
2019-05-10T11:27:42.124Z,17.90
2019-05-10T11:30:12.109Z,18.00
2019-05-10T11:32:42.004Z,17.80
2019-05-10T11:35:17.547Z,17.60
2019-05-10T11:37:45.521Z,17.80
2019-05-10T11:40:17.998Z,17.80
2019-05-10T11:42:47.513Z,17.60
2019-05-10T11:45:16.162Z,17.80
2019-05-10T11:47:47.956Z,17.80
2019-05-10T11:50:28.853Z,17.70
2019-05-10T11:52:47.481Z,17.70
2019-05-10T11:55:16.917Z,17.70
2019-05-10T11:58:00.185Z,17.50
2019-05-10T12:03:06.691Z,17.30
2019-05-10T12:07:54.158Z,17.10
2019-05-10T12:10:25.206Z,17.40
2019-05-10T12:13:06.553Z,17.40
2019-05-10T12:20:46.377Z,17.50
2019-05-10T12:23:03.423Z,17.70
2019-05-10T12:25:47.206Z,17.80
2019-05-10T12:26:04.858Z,17.30
2019-05-10T12:26:06.532Z,17.50
2019-05-10T12:26:16.656Z,17.10
2019-05-10T12:26:27.769Z,17.50
2019-05-10T12:28:02.934Z,17.80
2019-05-10T12:30:35.173Z,17.70
2019-05-10T12:33:08.848Z,17.60
2019-05-10T12:35:39.946Z,17.50
2019-05-10T12:38:04.428Z,17.60
2019-05-10T12:40:33.462Z,17.50
2019-05-10T12:43:02.479Z,17.30
2019-05-10T12:45:31.616Z,17.10
2019-05-10T12:48:01.357Z,16.90
2019-05-10T12:50:30.449Z,16.80
2019-05-10T12:53:12.601Z,16.90
2019-05-10T12:55:30.087Z,16.80
2019-05-10T12:57:59.289Z,16.80
2019-05-10T13:00:28.327Z,16.50
2019-05-10T13:03:11.680Z,16.60
2019-05-10T13:05:31.916Z,16.70
2019-05-10T13:07:58.756Z,16.80
2019-05-10T13:10:27.895Z,16.90
2019-05-10T13:12:56.982Z,16.80
2019-05-10T13:15:31.065Z,16.80
2019-05-10T13:17:56.756Z,17.00
2019-05-10T13:20:30.787Z,17.30
2019-05-10T13:22:56.800Z,17.70
2019-05-10T13:25:25.842Z,18.00
2019-05-10T13:27:54.802Z,17.70
2019-05-10T13:30:28.217Z,17.80
2019-05-10T13:32:58.651Z,18.10
2019-05-10T13:35:25.377Z,18.00
2019-05-10T13:37:57.017Z,18.10
2019-05-10T13:40:25.085Z,18.20
2019-05-10T13:42:54.062Z,18.50
2019-05-10T13:45:25.126Z,18.60
2019-05-10T13:47:54.146Z,18.70
2019-05-10T13:50:23.168Z,18.80
2019-05-10T13:52:52.199Z,18.70
2019-05-10T13:55:21.229Z,18.60
2019-05-10T13:57:53.979Z,18.60
2019-05-10T14:00:21.841Z,18.50
2019-05-10T14:02:50.871Z,18.20
2019-05-10T14:05:20.091Z,18.30
2019-05-10T14:07:51.789Z,18.40
2019-05-10T14:10:23.266Z,18.60
2019-05-10T14:12:50.723Z,18.20
2019-05-10T14:15:20.041Z,18.30
2019-05-10T14:17:49.054Z,18.40
2019-05-10T14:20:25.293Z,18.50
2019-05-10T14:22:55.869Z,18.40
2019-05-10T14:25:20.141Z,18.40
2019-05-10T14:27:49.186Z,18.00
2019-05-10T14:30:18.494Z,17.80
2019-05-10T14:32:47.568Z,18.00
2019-05-10T14:35:21.980Z,18.20
2019-05-10T14:37:48.211Z,18.20
2019-05-10T14:40:27.651Z,18.30
2019-05-10T14:42:53.050Z,18.30
2019-05-10T14:45:22.212Z,18.30
2019-05-10T14:47:51.205Z,18.30
2019-05-10T14:50:26.380Z,18.10
2019-05-10T14:52:52.057Z,17.90
2019-05-10T14:55:21.015Z,18.00
2019-05-10T14:57:50.395Z,18.20
2019-05-10T15:00:19.784Z,18.30
2019-05-10T15:02:48.788Z,18.40
2019-05-10T15:05:18.315Z,18.40
2019-05-10T15:07:50.954Z,18.40
2019-05-10T15:10:18.209Z,18.50
2019-05-10T15:12:47.318Z,18.60
2019-05-10T15:15:16.569Z,18.60
2019-05-10T15:17:45.590Z,18.70
2019-05-10T15:20:14.997Z,18.70
2019-05-10T15:22:45.227Z,18.80
2019-05-10T15:25:14.339Z,18.90
2019-05-10T15:27:43.314Z,18.90
2019-05-10T15:30:12.442Z,18.90
2019-05-10T15:32:41.372Z,19.00
2019-05-10T15:35:10.509Z,19.00
2019-05-10T15:37:45.474Z,19.00
2019-05-10T15:40:10.265Z,19.10
2019-05-10T15:42:39.320Z,19.00
2019-05-10T15:45:14.511Z,19.00
2019-05-10T15:47:50.863Z,18.90
2019-05-10T15:50:11.613Z,18.70
2019-05-10T15:52:46.499Z,18.60
2019-05-10T15:55:16.540Z,18.50
2019-05-10T15:57:43.256Z,18.60
2019-05-10T16:00:12.639Z,18.70
2019-05-10T16:02:41.696Z,18.80
2019-05-10T16:05:25.536Z,18.80
2019-05-10T16:07:46.023Z,18.70
2019-05-10T16:10:12.270Z,18.70
2019-05-10T16:12:43.231Z,18.70
2019-05-10T16:15:13.609Z,18.80
2019-05-10T16:17:43.053Z,18.90
2019-05-10T16:20:12.220Z,18.90
2019-05-10T16:22:41.152Z,18.80
2019-05-10T16:25:10.200Z,18.80
2019-05-10T16:27:43.551Z,18.80
2019-05-10T16:30:12.092Z,18.80
2019-05-10T16:32:40.838Z,18.80
2019-05-10T16:35:14.552Z,18.70
2019-05-10T16:37:40.629Z,18.70
2019-05-10T16:40:10.263Z,18.60
2019-05-10T16:42:39.370Z,18.70
2019-05-10T16:45:08.614Z,18.60
2019-05-10T16:47:37.637Z,18.60
2019-05-10T16:50:06.999Z,18.60
2019-05-10T16:52:36.140Z,18.70
2019-05-10T16:55:05.650Z,18.60
2019-05-10T16:57:37.457Z,18.50
2019-05-10T17:00:08.459Z,18.30
2019-05-10T17:02:42.076Z,18.30
2019-05-10T17:05:09.690Z,18.30
2019-05-10T17:07:38.881Z,18.30
2019-05-10T17:10:08.413Z,18.30
2019-05-10T17:12:37.433Z,18.40
2019-05-10T17:15:06.829Z,18.40
2019-05-10T17:17:37.258Z,18.50
2019-05-10T17:20:07.294Z,18.40
2019-05-10T17:22:37.721Z,18.50
2019-05-10T17:25:06.751Z,18.40
2019-05-10T17:27:35.816Z,18.50
2019-05-10T17:30:06.136Z,18.30
2019-05-10T17:32:35.150Z,18.30
2019-05-10T17:35:05.093Z,18.10
2019-05-10T17:37:36.239Z,18.10
2019-05-10T17:40:10.123Z,17.90
2019-05-10T17:42:41.262Z,17.80
2019-05-10T17:45:08.411Z,17.90
2019-05-10T17:47:37.365Z,17.80
2019-05-10T17:50:06.818Z,17.70
2019-05-10T17:52:35.825Z,17.80
2019-05-10T17:55:04.951Z,17.70
2019-05-10T17:57:33.969Z,17.70
2019-05-10T18:00:03.349Z,17.70
2019-05-10T18:02:32.281Z,17.60
2019-05-10T18:05:06.331Z,17.50
2019-05-10T18:07:32.182Z,17.40
2019-05-10T18:10:01.751Z,17.20
2019-05-10T18:12:30.748Z,17.10
2019-05-10T18:14:59.686Z,16.90
2019-05-10T18:17:28.826Z,16.70
2019-05-10T18:20:02.210Z,16.60
2019-05-10T18:22:28.476Z,16.40
2019-05-10T18:24:57.494Z,16.30
2019-05-10T18:27:26.448Z,16.30
2019-05-10T18:29:57.134Z,16.20
2019-05-10T18:32:29.252Z,15.90
2019-05-10T18:34:56.931Z,15.80
2019-05-10T18:37:25.971Z,15.60
2019-05-10T18:39:54.991Z,15.50
2019-05-10T18:42:25.667Z,15.20
2019-05-10T18:44:54.777Z,15.20
2019-05-10T18:47:23.839Z,15.10
2019-05-10T18:49:52.982Z,15.00
2019-05-10T18:52:21.965Z,14.90
2019-05-10T18:54:50.908Z,14.80
2019-05-10T18:57:20.238Z,14.60
2019-05-10T18:59:49.414Z,14.60
2019-05-10T19:02:19.969Z,14.70
2019-05-10T19:04:52.091Z,14.70
2019-05-10T19:07:19.884Z,14.60
2019-05-10T19:09:48.758Z,14.50
2019-05-10T19:12:19.243Z,14.30
2019-05-10T19:14:48.701Z,14.20
2019-05-10T19:17:17.773Z,14.10
2019-05-10T19:19:46.853Z,13.80
2019-05-10T19:22:17.336Z,13.80
2019-05-10T19:24:46.334Z,13.70
2019-05-10T19:27:15.340Z,13.70
2019-05-10T19:29:47.727Z,13.60
2019-05-10T19:32:18.331Z,13.40
2019-05-10T19:34:48.347Z,13.40
2019-05-10T19:37:29.711Z,13.30
2019-05-10T19:39:49.161Z,13.20
2019-05-10T19:42:18.323Z,13.10
2019-05-10T19:44:47.582Z,12.90
2019-05-10T19:47:19.809Z,12.90
2019-05-10T19:49:51.565Z,13.00
2019-05-10T19:52:23.811Z,12.90
2019-05-10T19:54:49.625Z,12.90
2019-05-10T19:57:18.938Z,12.90
2019-05-10T19:59:54.009Z,12.80
2019-05-10T20:02:22.926Z,12.80
2019-05-10T20:04:51.875Z,12.80
2019-05-10T20:07:20.917Z,12.90
2019-05-10T20:09:50.049Z,12.90
2019-05-10T20:12:19.045Z,12.90
2019-05-10T20:14:48.058Z,13.00
2019-05-10T20:17:17.467Z,12.90
2019-05-10T20:19:46.514Z,13.00
2019-05-10T20:22:15.532Z,13.00
2019-05-10T20:25:06.780Z,12.90
2019-05-10T20:27:39.073Z,13.00
2019-05-10T20:30:13.455Z,12.90
2019-05-10T20:32:49.634Z,12.80
2019-05-10T20:38:13.367Z,12.80
2019-05-10T20:40:42.586Z,12.70
2019-05-10T20:43:11.713Z,12.80
2019-05-10T20:46:07.222Z,12.90
2019-05-10T20:48:36.797Z,12.90
2019-05-10T20:51:06.062Z,12.90
2019-05-10T20:53:39.125Z,13.00
2019-05-10T20:56:08.117Z,13.00
2019-05-10T20:58:37.064Z,12.90
2019-05-10T21:01:24.368Z,12.90
2019-05-10T21:03:53.307Z,13.00
2019-05-10T21:06:22.312Z,12.90
2019-05-10T21:08:51.401Z,12.90
2019-05-10T21:11:20.422Z,12.90
2019-05-10T21:13:49.510Z,12.80
2019-05-10T21:16:18.566Z,12.90
2019-05-10T21:18:47.523Z,12.90
2019-05-10T21:21:16.919Z,13.00
2019-05-10T21:23:46.062Z,13.00
2019-05-10T21:26:15.064Z,13.00
2019-05-10T21:28:44.027Z,13.00
2019-05-10T21:31:13.138Z,12.90
2019-05-10T21:33:42.359Z,12.90
2019-05-10T21:36:11.332Z,12.90
2019-05-10T21:38:41.806Z,12.90
2019-05-10T21:41:11.242Z,12.90
2019-05-10T21:43:40.119Z,12.80
2019-05-10T21:46:09.145Z,12.80
2019-05-10T21:48:38.006Z,12.80
2019-05-10T21:51:06.937Z,12.90
2019-05-10T21:53:35.894Z,12.80
2019-05-10T21:56:04.836Z,12.90
2019-05-10T21:58:33.890Z,12.90
2019-05-10T22:01:03.206Z,12.90
2019-05-10T22:03:32.131Z,13.00
2019-05-10T22:06:01.098Z,13.00
2019-05-10T22:08:30.105Z,13.00
2019-05-10T22:10:59.041Z,13.00
2019-05-10T22:13:28.085Z,13.00
2019-05-10T22:15:57.171Z,13.00
2019-05-10T22:18:26.346Z,12.90
2019-05-10T22:20:55.278Z,12.90
2019-05-10T22:23:24.278Z,12.90
2019-05-10T22:25:53.400Z,12.90
2019-05-10T22:28:22.419Z,13.00
2019-05-10T22:30:51.462Z,13.00
2019-05-10T22:33:20.890Z,13.00
2019-05-10T22:35:49.746Z,13.10
2019-05-10T22:38:18.820Z,13.00
2019-05-10T22:40:47.833Z,13.10
2019-05-10T22:43:16.838Z,13.00
2019-05-10T22:45:45.872Z,13.00
2019-05-10T22:48:14.837Z,13.00
2019-05-10T22:50:43.895Z,13.10
2019-05-10T22:53:12.852Z,13.10
2019-05-10T22:55:41.875Z,13.00
2019-05-10T22:58:11.354Z,13.10
2019-05-10T23:00:40.448Z,13.10
2019-05-10T23:03:09.487Z,13.20
2019-05-10T23:05:38.417Z,13.30
2019-05-10T23:08:07.521Z,13.20
2019-05-10T23:10:36.458Z,13.20
2019-05-10T23:13:05.469Z,13.10
2019-05-10T23:15:34.826Z,13.10
2019-05-10T23:18:03.770Z,13.00
2019-05-10T23:20:32.697Z,13.00
2019-05-10T23:23:01.718Z,13.00
2019-05-10T23:25:30.742Z,13.10
2019-05-10T23:28:00.156Z,13.10
2019-05-10T23:30:29.179Z,13.20
2019-05-10T23:32:58.135Z,13.10
2019-05-10T23:35:27.071Z,13.10
2019-05-10T23:37:56.087Z,13.10
2019-05-10T23:40:25.006Z,13.00
2019-05-10T23:42:54.005Z,13.00
2019-05-10T23:45:23.034Z,13.00
2019-05-10T23:47:52.095Z,13.10
2019-05-10T23:50:21.101Z,13.10
2019-05-10T23:52:50.049Z,13.10
2019-05-10T23:55:19.063Z,13.00
2019-05-10T23:57:47.957Z,13.10
